sensor_id;sensor_type;location;lat;lon;timestamp;pressure;altitude;pressure_sealevel;temperature;humidity
41703;BME280;861;48.808;9.006;2023-02-13T00:00:41;98989.31;;;5.18;69.71
41703;BME280;861;48.808;9.006;2023-02-13T00:03:08;98989.38;;;5.40;69.35
41703;BME280;861;48.808;9.006;2023-02-13T00:05:34;98983.72;;;5.28;69.76
41703;BME280;861;48.808;9.006;2023-02-13T00:08:00;98986.72;;;5.26;69.95
41703;BME280;861;48.808;9.006;2023-02-13T00:10:26;98980.44;;;5.04;69.85
41703;BME280;861;48.808;9.006;2023-02-13T00:12:52;98983.84;;;4.96;70.98
41703;BME280;861;48.808;9.006;2023-02-13T00:15:19;98985.66;;;4.87;70.93
41703;BME280;861;48.808;9.006;2023-02-13T00:17:45;98982.94;;;5.00;70.57
41703;BME280;861;48.808;9.006;2023-02-13T00:20:12;98980.72;;;5.02;70.00
41703;BME280;861;48.808;9.006;2023-02-13T00:22:39;98983.13;;;5.04;69.89
41703;BME280;861;48.808;9.006;2023-02-13T00:25:08;98984.47;;;5.28;69.51
41703;BME280;861;48.808;9.006;2023-02-13T00:27:34;98986.38;;;5.41;68.49
41703;BME280;861;48.808;9.006;2023-02-13T00:30:01;98982.38;;;5.39;68.40
41703;BME280;861;48.808;9.006;2023-02-13T00:32:29;98979.47;;;5.35;67.93
41703;BME280;861;48.808;9.006;2023-02-13T00:34:56;98976.41;;;5.15;68.05
41703;BME280;861;48.808;9.006;2023-02-13T00:37:24;98976.53;;;4.96;69.29
41703;BME280;861;48.808;9.006;2023-02-13T00:39:51;98984.72;;;4.78;70.11
41703;BME280;861;48.808;9.006;2023-02-13T00:42:18;98980.56;;;4.85;70.19
41703;BME280;861;48.808;9.006;2023-02-13T00:44:45;98981.19;;;4.23;71.61
41703;BME280;861;48.808;9.006;2023-02-13T00:47:11;98981.34;;;4.13;72.87
41703;BME280;861;48.808;9.006;2023-02-13T00:49:39;98985.91;;;3.99;73.05
41703;BME280;861;48.808;9.006;2023-02-13T00:52:06;98987.13;;;4.06;72.52
41703;BME280;861;48.808;9.006;2023-02-13T00:54:32;98983.66;;;4.19;72.43
41703;BME280;861;48.808;9.006;2023-02-13T00:56:58;98976.34;;;4.52;70.77
41703;BME280;861;48.808;9.006;2023-02-13T00:59:24;98981.53;;;4.62;70.10
41703;BME280;861;48.808;9.006;2023-02-13T01:01:50;98982.94;;;4.59;70.75
41703;BME280;861;48.808;9.006;2023-02-13T01:04:17;98982.75;;;4.83;69.91
41703;BME280;861;48.808;9.006;2023-02-13T01:06:43;98976.31;;;5.06;68.61
41703;BME280;861;48.808;9.006;2023-02-13T01:09:10;98980.63;;;5.07;68.07
41703;BME280;861;48.808;9.006;2023-02-13T01:11:37;98966.81;;;4.95;69.05
41703;BME280;861;48.808;9.006;2023-02-13T01:14:03;98980.44;;;4.77;69.60
41703;BME280;861;48.808;9.006;2023-02-13T01:16:29;98978.16;;;4.84;69.63
41703;BME280;861;48.808;9.006;2023-02-13T01:18:56;98973.34;;;4.67;69.84
41703;BME280;861;48.808;9.006;2023-02-13T01:21:22;98981.13;;;4.55;69.99
41703;BME280;861;48.808;9.006;2023-02-13T01:23:49;98975.53;;;4.51;70.63
41703;BME280;861;48.808;9.006;2023-02-13T01:26:23;98966.44;;;4.47;70.81
41703;BME280;861;48.808;9.006;2023-02-13T01:28:54;98970.91;;;4.38;70.64
41703;BME280;861;48.808;9.006;2023-02-13T01:31:21;98965.53;;;4.38;70.95
41703;BME280;861;48.808;9.006;2023-02-13T01:33:47;98966.84;;;4.41;70.15
41703;BME280;861;48.808;9.006;2023-02-13T01:36:13;98964.03;;;4.46;70.62
41703;BME280;861;48.808;9.006;2023-02-13T01:38:40;98958.94;;;4.44;70.20
41703;BME280;861;48.808;9.006;2023-02-13T01:41:08;98959.53;;;4.41;69.99
41703;BME280;861;48.808;9.006;2023-02-13T01:43:50;98963.94;;;4.51;70.16
41703;BME280;861;48.808;9.006;2023-02-13T01:46:32;98959.34;;;4.65;69.09
41703;BME280;861;48.808;9.006;2023-02-13T01:49:14;98954.63;;;4.57;69.89
41703;BME280;861;48.808;9.006;2023-02-13T01:51:53;98964.53;;;4.48;70.35
41703;BME280;861;48.808;9.006;2023-02-13T01:54:33;98966.72;;;4.32;70.32
41703;BME280;861;48.808;9.006;2023-02-13T01:57:18;98968.00;;;4.35;70.13
41703;BME280;861;48.808;9.006;2023-02-13T02:00:07;98966.50;;;4.29;70.43
41703;BME280;861;48.808;9.006;2023-02-13T02:02:56;98964.44;;;4.39;69.82
41703;BME280;861;48.808;9.006;2023-02-13T02:05:32;98966.44;;;4.61;68.96
41703;BME280;861;48.808;9.006;2023-02-13T02:08:08;98962.03;;;4.65;68.16
41703;BME280;861;48.808;9.006;2023-02-13T02:10:39;98963.63;;;4.52;68.90
41703;BME280;861;48.808;9.006;2023-02-13T02:13:20;98974.34;;;4.57;69.54
41703;BME280;861;48.808;9.006;2023-02-13T02:15:49;98966.63;;;4.51;69.12
41703;BME280;861;48.808;9.006;2023-02-13T02:18:22;98964.84;;;4.46;69.87
41703;BME280;861;48.808;9.006;2023-02-13T02:35:26;98967.50;;;3.87;71.41
41703;BME280;861;48.808;9.006;2023-02-13T02:38:39;98960.09;;;3.79;70.76
41703;BME280;861;48.808;9.006;2023-02-13T02:45:48;98952.13;;;3.88;71.47
41703;BME280;861;48.808;9.006;2023-02-13T02:48:30;98949.84;;;4.27;70.73
41703;BME280;861;48.808;9.006;2023-02-13T02:51:36;98951.63;;;4.31;69.89
41703;BME280;861;48.808;9.006;2023-02-13T02:54:39;98952.75;;;4.44;69.25
41703;BME280;861;48.808;9.006;2023-02-13T02:57:44;98956.16;;;4.63;67.95
41703;BME280;861;48.808;9.006;2023-02-13T03:00:40;98960.03;;;4.30;68.32
41703;BME280;861;48.808;9.006;2023-02-13T03:03:29;98960.94;;;4.39;67.76
41703;BME280;861;48.808;9.006;2023-02-13T03:06:26;98960.81;;;4.30;67.62
41703;BME280;861;48.808;9.006;2023-02-13T03:09:08;98968.38;;;4.15;68.76
41703;BME280;861;48.808;9.006;2023-02-13T03:11:59;98960.25;;;4.01;69.30
41703;BME280;861;48.808;9.006;2023-02-13T03:14:45;98960.97;;;3.75;70.72
41703;BME280;861;48.808;9.006;2023-02-13T03:17:17;98973.59;;;3.61;70.79
41703;BME280;861;48.808;9.006;2023-02-13T03:20:25;98965.13;;;3.49;71.86
41703;BME280;861;48.808;9.006;2023-02-13T03:24:09;98965.34;;;4.03;69.32
41703;BME280;861;48.808;9.006;2023-02-13T03:27:22;98962.38;;;3.54;70.97
41703;BME280;861;48.808;9.006;2023-02-13T03:34:17;98958.81;;;3.58;70.80
41703;BME280;861;48.808;9.006;2023-02-13T03:37:05;98961.72;;;3.62;70.78
41703;BME280;861;48.808;9.006;2023-02-13T03:40:42;98959.53;;;3.64;69.67
41703;BME280;861;48.808;9.006;2023-02-13T03:43:47;98966.66;;;3.55;69.81
41703;BME280;861;48.808;9.006;2023-02-13T03:46:20;98964.41;;;3.62;70.53
41703;BME280;861;48.808;9.006;2023-02-13T03:48:47;98964.56;;;3.52;70.57
41703;BME280;861;48.808;9.006;2023-02-13T03:51:55;98966.38;;;3.38;71.71
41703;BME280;861;48.808;9.006;2023-02-13T03:55:02;98972.34;;;3.53;71.17
41703;BME280;861;48.808;9.006;2023-02-13T03:57:59;98978.59;;;3.67;70.25
41703;BME280;861;48.808;9.006;2023-02-13T04:00:58;98978.59;;;3.49;71.21
41703;BME280;861;48.808;9.006;2023-02-13T04:03:48;98978.25;;;3.18;72.83
41703;BME280;861;48.808;9.006;2023-02-13T04:06:35;98988.38;;;3.26;72.19
41703;BME280;861;48.808;9.006;2023-02-13T04:09:11;98992.13;;;3.44;71.01
41703;BME280;861;48.808;9.006;2023-02-13T04:11:56;98984.81;;;3.31;70.81
41703;BME280;861;48.808;9.006;2023-02-13T04:14:55;98997.69;;;3.34;70.62
41703;BME280;861;48.808;9.006;2023-02-13T04:17:40;98999.34;;;3.30;71.08
41703;BME280;861;48.808;9.006;2023-02-13T04:20:11;99000.41;;;3.10;71.46
41703;BME280;861;48.808;9.006;2023-02-13T04:22:45;99003.13;;;3.10;72.06
41703;BME280;861;48.808;9.006;2023-02-13T04:25:16;98998.31;;;3.26;72.97
41703;BME280;861;48.808;9.006;2023-02-13T04:27:44;98996.44;;;3.26;72.83
41703;BME280;861;48.808;9.006;2023-02-13T04:30:12;99003.66;;;3.31;73.00
41703;BME280;861;48.808;9.006;2023-02-13T04:32:38;98992.34;;;3.10;73.28
41703;BME280;861;48.808;9.006;2023-02-13T04:35:05;99001.31;;;2.82;74.44
41703;BME280;861;48.808;9.006;2023-02-13T04:37:31;98996.63;;;2.69;74.71
41703;BME280;861;48.808;9.006;2023-02-13T04:39:57;98995.47;;;2.51;74.71
41703;BME280;861;48.808;9.006;2023-02-13T04:42:23;99001.03;;;2.31;75.88
41703;BME280;861;48.808;9.006;2023-02-13T04:44:49;98991.94;;;2.27;76.03
41703;BME280;861;48.808;9.006;2023-02-13T04:47:15;99002.38;;;2.57;75.31
41703;BME280;861;48.808;9.006;2023-02-13T04:49:42;98997.97;;;2.90;73.79
41703;BME280;861;48.808;9.006;2023-02-13T04:52:08;98996.34;;;3.12;72.38
41703;BME280;861;48.808;9.006;2023-02-13T04:54:34;99008.16;;;3.35;71.05
41703;BME280;861;48.808;9.006;2023-02-13T04:57:00;99007.66;;;3.52;70.11
41703;BME280;861;48.808;9.006;2023-02-13T04:59:26;99005.69;;;3.57;69.19
41703;BME280;861;48.808;9.006;2023-02-13T05:01:53;99000.22;;;3.44;69.51
41703;BME280;861;48.808;9.006;2023-02-13T05:04:19;99001.53;;;3.28;71.09
41703;BME280;861;48.808;9.006;2023-02-13T05:06:45;99001.66;;;3.36;69.95
41703;BME280;861;48.808;9.006;2023-02-13T05:09:11;99003.84;;;3.34;70.48
41703;BME280;861;48.808;9.006;2023-02-13T05:11:37;99001.59;;;3.41;70.28
41703;BME280;861;48.808;9.006;2023-02-13T05:14:04;98999.72;;;3.42;70.48
41703;BME280;861;48.808;9.006;2023-02-13T05:16:30;98997.38;;;3.54;69.66
41703;BME280;861;48.808;9.006;2023-02-13T05:18:56;98998.75;;;3.33;70.68
41703;BME280;861;48.808;9.006;2023-02-13T05:21:22;99000.66;;;3.32;70.24
41703;BME280;861;48.808;9.006;2023-02-13T05:24:07;98998.47;;;3.34;70.61
41703;BME280;861;48.808;9.006;2023-02-13T05:26:33;98999.44;;;3.62;70.16
41703;BME280;861;48.808;9.006;2023-02-13T05:28:59;98995.34;;;3.64;69.36
41703;BME280;861;48.808;9.006;2023-02-13T05:31:56;98998.97;;;3.55;69.71
41703;BME280;861;48.808;9.006;2023-02-13T05:34:27;99001.31;;;3.43;70.12
41703;BME280;861;48.808;9.006;2023-02-13T05:36:54;98999.69;;;3.23;71.35
41703;BME280;861;48.808;9.006;2023-02-13T05:39:21;98992.72;;;3.41;69.85
41703;BME280;861;48.808;9.006;2023-02-13T05:41:48;98994.19;;;3.33;70.56
41703;BME280;861;48.808;9.006;2023-02-13T05:44:15;98995.34;;;3.27;70.50
41703;BME280;861;48.808;9.006;2023-02-13T05:46:43;99001.91;;;3.40;70.42
41703;BME280;861;48.808;9.006;2023-02-13T05:49:12;98999.50;;;3.20;70.37
41703;BME280;861;48.808;9.006;2023-02-13T05:51:41;99001.38;;;3.38;70.08
41703;BME280;861;48.808;9.006;2023-02-13T05:54:08;98999.34;;;3.30;69.45
41703;BME280;861;48.808;9.006;2023-02-13T05:56:34;98997.91;;;3.37;69.32
41703;BME280;861;48.808;9.006;2023-02-13T05:59:00;98993.88;;;3.35;69.15
41703;BME280;861;48.808;9.006;2023-02-13T06:01:27;99000.78;;;3.41;68.75
41703;BME280;861;48.808;9.006;2023-02-13T06:03:53;98993.25;;;3.43;69.03
41703;BME280;861;48.808;9.006;2023-02-13T06:06:19;98990.84;;;3.41;68.88
41703;BME280;861;48.808;9.006;2023-02-13T06:08:46;98987.28;;;3.27;68.59
41703;BME280;861;48.808;9.006;2023-02-13T06:11:12;98996.16;;;3.28;69.44
41703;BME280;861;48.808;9.006;2023-02-13T06:13:38;98996.03;;;2.95;70.41
41703;BME280;861;48.808;9.006;2023-02-13T06:16:10;99003.72;;;2.83;70.95
41703;BME280;861;48.808;9.006;2023-02-13T06:18:37;98991.00;;;2.89;71.42
41703;BME280;861;48.808;9.006;2023-02-13T06:21:06;98993.34;;;2.95;70.82
41703;BME280;861;48.808;9.006;2023-02-13T06:23:34;99000.25;;;2.78;71.73
41703;BME280;861;48.808;9.006;2023-02-13T06:26:07;98995.00;;;2.68;72.12
41703;BME280;861;48.808;9.006;2023-02-13T06:28:35;98996.22;;;2.57;71.77
41703;BME280;861;48.808;9.006;2023-02-13T06:31:01;99003.13;;;2.39;72.88
41703;BME280;861;48.808;9.006;2023-02-13T06:33:27;99002.34;;;2.34;73.06
41703;BME280;861;48.808;9.006;2023-02-13T06:35:53;99002.34;;;2.34;73.43
41703;BME280;861;48.808;9.006;2023-02-13T06:38:20;98994.88;;;2.54;72.68
41703;BME280;861;48.808;9.006;2023-02-13T06:40:48;98989.41;;;2.64;71.50
41703;BME280;861;48.808;9.006;2023-02-13T06:43:16;98993.78;;;2.79;71.91
41703;BME280;861;48.808;9.006;2023-02-13T06:45:43;98990.59;;;3.19;70.55
41703;BME280;861;48.808;9.006;2023-02-13T06:48:12;99006.53;;;3.34;69.96
41703;BME280;861;48.808;9.006;2023-02-13T06:50:39;98993.31;;;3.38;69.08
41703;BME280;861;48.808;9.006;2023-02-13T06:53:05;98996.97;;;3.47;68.34
41703;BME280;861;48.808;9.006;2023-02-13T06:55:31;98992.72;;;3.22;69.61
41703;BME280;861;48.808;9.006;2023-02-13T06:57:57;99000.41;;;3.10;69.40
41703;BME280;861;48.808;9.006;2023-02-13T07:00:23;99002.53;;;3.13;68.93
41703;BME280;861;48.808;9.006;2023-02-13T07:02:51;99000.00;;;2.98;69.93
41703;BME280;861;48.808;9.006;2023-02-13T07:05:17;98999.88;;;2.89;70.15
41703;BME280;861;48.808;9.006;2023-02-13T07:07:43;99006.25;;;2.93;70.17
41703;BME280;861;48.808;9.006;2023-02-13T07:10:13;99012.50;;;2.89;70.11
41703;BME280;861;48.808;9.006;2023-02-13T07:12:39;99012.28;;;2.85;70.55
41703;BME280;861;48.808;9.006;2023-02-13T07:15:07;99010.72;;;2.79;70.99
41703;BME280;861;48.808;9.006;2023-02-13T07:17:33;99016.06;;;2.84;71.07
41703;BME280;861;48.808;9.006;2023-02-13T07:20:00;99013.31;;;2.89;70.84
41703;BME280;861;48.808;9.006;2023-02-13T07:22:26;99013.13;;;3.04;70.28
41703;BME280;861;48.808;9.006;2023-02-13T07:24:53;99014.81;;;3.19;70.76
41703;BME280;861;48.808;9.006;2023-02-13T07:27:19;99015.06;;;3.23;70.16
41703;BME280;861;48.808;9.006;2023-02-13T07:29:45;99018.75;;;3.27;70.82
41703;BME280;861;48.808;9.006;2023-02-13T07:32:11;99015.66;;;3.38;71.10
41703;BME280;861;48.808;9.006;2023-02-13T07:34:37;99018.72;;;3.50;70.43
41703;BME280;861;48.808;9.006;2023-02-13T07:37:03;99024.69;;;3.47;71.29
41703;BME280;861;48.808;9.006;2023-02-13T07:39:29;99021.97;;;3.47;71.16
41703;BME280;861;48.808;9.006;2023-02-13T07:41:56;99017.25;;;3.39;71.92
41703;BME280;861;48.808;9.006;2023-02-13T07:44:22;99025.59;;;3.19;73.05
41703;BME280;861;48.808;9.006;2023-02-13T07:46:49;99025.31;;;3.39;73.33
41703;BME280;861;48.808;9.006;2023-02-13T07:49:15;99020.84;;;3.72;73.45
41703;BME280;861;48.808;9.006;2023-02-13T07:51:41;99030.28;;;3.69;74.28
41703;BME280;861;48.808;9.006;2023-02-13T07:54:07;99020.72;;;3.77;74.18
41703;BME280;861;48.808;9.006;2023-02-13T07:56:33;99019.84;;;4.00;73.09
41703;BME280;861;48.808;9.006;2023-02-13T07:58:59;99020.56;;;4.05;73.10
41703;BME280;861;48.808;9.006;2023-02-13T08:01:25;99026.13;;;3.95;74.00
41703;BME280;861;48.808;9.006;2023-02-13T08:03:52;99016.72;;;3.93;74.51
41703;BME280;861;48.808;9.006;2023-02-13T08:06:19;99010.09;;;3.85;74.51
41703;BME280;861;48.808;9.006;2023-02-13T08:08:46;99015.16;;;4.05;74.04
41703;BME280;861;48.808;9.006;2023-02-13T08:11:31;99017.34;;;4.35;72.86
41703;BME280;861;48.808;9.006;2023-02-13T08:14:16;99019.59;;;4.47;72.42
41703;BME280;861;48.808;9.006;2023-02-13T08:16:42;99013.13;;;4.61;72.18
41703;BME280;861;48.808;9.006;2023-02-13T08:19:08;99007.53;;;4.85;71.91
41703;BME280;861;48.808;9.006;2023-02-13T08:21:35;99015.53;;;5.04;71.37
41703;BME280;861;48.808;9.006;2023-02-13T08:24:04;99017.53;;;5.12;71.38
41703;BME280;861;48.808;9.006;2023-02-13T08:26:31;99011.78;;;5.27;71.44
41703;BME280;861;48.808;9.006;2023-02-13T08:28:59;99005.69;;;5.35;71.70
41703;BME280;861;48.808;9.006;2023-02-13T08:31:26;99007.00;;;5.37;71.74
41703;BME280;861;48.808;9.006;2023-02-13T08:33:52;99007.25;;;5.49;71.30
41703;BME280;861;48.808;9.006;2023-02-13T08:36:21;99007.06;;;5.46;71.74
41703;BME280;861;48.808;9.006;2023-02-13T08:38:47;99002.56;;;5.41;72.98
41703;BME280;861;48.808;9.006;2023-02-13T08:41:15;99010.84;;;5.58;72.45
41703;BME280;861;48.808;9.006;2023-02-13T08:43:45;99003.88;;;5.79;72.18
41703;BME280;861;48.808;9.006;2023-02-13T08:46:11;98999.03;;;5.90;71.89
41703;BME280;861;48.808;9.006;2023-02-13T08:48:38;98997.34;;;5.94;72.56
41703;BME280;861;48.808;9.006;2023-02-13T08:51:11;98999.44;;;5.97;73.48
41703;BME280;861;48.808;9.006;2023-02-13T08:53:39;98999.47;;;6.05;72.65
41703;BME280;861;48.808;9.006;2023-02-13T08:56:07;98996.97;;;6.09;72.88
41703;BME280;861;48.808;9.006;2023-02-13T08:58:34;99003.28;;;6.04;73.85
41703;BME280;861;48.808;9.006;2023-02-13T09:01:05;98998.19;;;6.03;73.39
41703;BME280;861;48.808;9.006;2023-02-13T09:03:33;99005.06;;;6.09;72.98
41703;BME280;861;48.808;9.006;2023-02-13T09:06:02;99003.06;;;5.79;75.45
41703;BME280;861;48.808;9.006;2023-02-13T09:08:28;99002.56;;;5.90;75.36
41703;BME280;861;48.808;9.006;2023-02-13T09:11:02;98999.69;;;5.73;74.95
41703;BME280;861;48.808;9.006;2023-02-13T09:13:32;99003.50;;;6.08;75.15
41703;BME280;861;48.808;9.006;2023-02-13T09:16:04;99008.50;;;6.23;75.61
41703;BME280;861;48.808;9.006;2023-02-13T09:18:34;99001.81;;;6.51;73.45
41703;BME280;861;48.808;9.006;2023-02-13T09:21:08;98993.72;;;6.90;72.73
41703;BME280;861;48.808;9.006;2023-02-13T09:23:39;98992.63;;;6.61;74.02
41703;BME280;861;48.808;9.006;2023-02-13T09:26:11;99002.25;;;6.45;75.46
41703;BME280;861;48.808;9.006;2023-02-13T09:28:40;98998.22;;;6.34;75.23
41703;BME280;861;48.808;9.006;2023-02-13T09:31:10;99005.84;;;6.62;73.51
41703;BME280;861;48.808;9.006;2023-02-13T09:33:44;99000.69;;;6.74;75.43
41703;BME280;861;48.808;9.006;2023-02-13T09:36:17;99001.88;;;6.99;73.49
41703;BME280;861;48.808;9.006;2023-02-13T09:38:51;99001.31;;;7.36;71.72
41703;BME280;861;48.808;9.006;2023-02-13T09:41:41;98996.72;;;7.36;71.09
41703;BME280;861;48.808;9.006;2023-02-13T09:44:39;98998.81;;;7.65;70.59
41703;BME280;861;48.808;9.006;2023-02-13T09:47:35;99001.53;;;7.65;70.24
41703;BME280;861;48.808;9.006;2023-02-13T09:50:28;99009.53;;;7.87;68.88
41703;BME280;861;48.808;9.006;2023-02-13T09:53:00;99006.31;;;7.85;69.72
41703;BME280;861;48.808;9.006;2023-02-13T09:55:46;99007.75;;;8.00;70.47
41703;BME280;861;48.808;9.006;2023-02-13T09:58:47;99013.31;;;8.20;68.55
41703;BME280;861;48.808;9.006;2023-02-13T10:01:43;99003.91;;;8.01;70.57
41703;BME280;861;48.808;9.006;2023-02-13T10:04:48;99004.56;;;8.06;69.52
41703;BME280;861;48.808;9.006;2023-02-13T10:14:48;99010.41;;;8.59;67.66
41703;BME280;861;48.808;9.006;2023-02-13T10:17:47;99006.53;;;8.69;68.40
41703;BME280;861;48.808;9.006;2023-02-13T10:20:59;99011.00;;;9.11;65.92
41703;BME280;861;48.808;9.006;2023-02-13T10:23:55;99001.91;;;9.07;65.34
41703;BME280;861;48.808;9.006;2023-02-13T10:26:37;99006.59;;;9.27;66.46
41703;BME280;861;48.808;9.006;2023-02-13T10:32:45;98999.81;;;9.62;64.74
41703;BME280;861;48.808;9.006;2023-02-13T10:35:31;98992.03;;;9.52;64.94
41703;BME280;861;48.808;9.006;2023-02-13T10:38:08;98992.84;;;10.14;64.02
41703;BME280;861;48.808;9.006;2023-02-13T10:41:23;98991.31;;;10.05;62.59
41703;BME280;861;48.808;9.006;2023-02-13T10:45:00;98996.03;;;9.96;62.41
41703;BME280;861;48.808;9.006;2023-02-13T10:48:09;98988.53;;;10.46;61.19
41703;BME280;861;48.808;9.006;2023-02-13T10:51:33;98985.28;;;10.76;60.30
41703;BME280;861;48.808;9.006;2023-02-13T10:57:21;98983.63;;;11.20;59.12
41703;BME280;861;48.808;9.006;2023-02-13T11:00:15;98986.53;;;10.67;59.04
41703;BME280;861;48.808;9.006;2023-02-13T11:02:46;98973.91;;;10.50;61.26
41703;BME280;861;48.808;9.006;2023-02-13T11:05:31;98975.66;;;11.03;58.74
41703;BME280;861;48.808;9.006;2023-02-13T11:08:20;98973.97;;;11.23;59.37
41703;BME280;861;48.808;9.006;2023-02-13T11:10:47;98961.56;;;11.37;59.27
41703;BME280;861;48.808;9.006;2023-02-13T11:13:20;98955.53;;;11.44;59.88
41703;BME280;861;48.808;9.006;2023-02-13T11:16:08;98965.09;;;11.14;59.08
41703;BME280;861;48.808;9.006;2023-02-13T11:18:40;98962.69;;;11.36;59.83
41703;BME280;861;48.808;9.006;2023-02-13T11:21:32;98960.16;;;11.55;58.21
41703;BME280;861;48.808;9.006;2023-02-13T11:24:02;98959.06;;;11.84;58.58
41703;BME280;861;48.808;9.006;2023-02-13T11:26:38;98954.63;;;12.19;57.10
41703;BME280;861;48.808;9.006;2023-02-13T11:29:30;98953.59;;;11.96;57.46
41703;BME280;861;48.808;9.006;2023-02-13T11:34:40;98952.28;;;12.49;57.16
41703;BME280;861;48.808;9.006;2023-02-13T11:39:40;98948.94;;;12.86;56.05
41703;BME280;861;48.808;9.006;2023-02-13T11:42:26;98945.78;;;13.00;55.91
41703;BME280;861;48.808;9.006;2023-02-13T11:45:25;98953.25;;;12.41;56.98
41703;BME280;861;48.808;9.006;2023-02-13T11:51:56;98953.81;;;12.93;55.73
41703;BME280;861;48.808;9.006;2023-02-13T11:54:58;98947.97;;;12.94;55.87
41703;BME280;861;48.808;9.006;2023-02-13T11:57:36;98947.28;;;12.97;55.74
41703;BME280;861;48.808;9.006;2023-02-13T12:00:34;98941.66;;;13.06;56.58
41703;BME280;861;48.808;9.006;2023-02-13T12:03:28;98935.13;;;13.10;55.23
41703;BME280;861;48.808;9.006;2023-02-13T12:06:10;98939.59;;;13.18;54.34
41703;BME280;861;48.808;9.006;2023-02-13T12:08:44;98940.91;;;13.24;54.91
41703;BME280;861;48.808;9.006;2023-02-13T12:11:53;98942.63;;;13.48;55.09
41703;BME280;861;48.808;9.006;2023-02-13T12:14:33;98939.28;;;13.73;54.28
41703;BME280;861;48.808;9.006;2023-02-13T12:17:19;98944.31;;;13.71;53.96
41703;BME280;861;48.808;9.006;2023-02-13T12:19:50;98941.59;;;13.91;53.00
41703;BME280;861;48.808;9.006;2023-02-13T12:26:24;98931.41;;;14.29;52.77
41703;BME280;861;48.808;9.006;2023-02-13T12:36:12;98935.00;;;14.75;50.53
41703;BME280;861;48.808;9.006;2023-02-13T12:39:34;98923.19;;;15.23;50.20
41703;BME280;861;48.808;9.006;2023-02-13T12:43:12;98916.34;;;15.36;49.02
41703;BME280;861;48.808;9.006;2023-02-13T12:46:29;98921.94;;;15.43;50.72
41703;BME280;861;48.808;9.006;2023-02-13T12:53:22;98906.06;;;15.89;49.10
41703;BME280;861;48.808;9.006;2023-02-13T13:00:04;98909.13;;;16.13;47.87
41703;BME280;861;48.808;9.006;2023-02-13T13:03:04;98904.84;;;16.19;47.40
41703;BME280;861;48.808;9.006;2023-02-13T13:10:03;98901.03;;;16.27;47.62
41703;BME280;861;48.808;9.006;2023-02-13T13:16:48;98903.22;;;16.51;46.79
41703;BME280;861;48.808;9.006;2023-02-13T13:22:55;98900.25;;;16.70;45.80
41703;BME280;861;48.808;9.006;2023-02-13T13:26:14;98892.47;;;16.76;45.67
41703;BME280;861;48.808;9.006;2023-02-13T13:28:55;98900.09;;;16.97;45.93
41703;BME280;861;48.808;9.006;2023-02-13T13:31:27;98895.88;;;17.10;45.17
41703;BME280;861;48.808;9.006;2023-02-13T13:34:05;98885.97;;;16.98;45.96
41703;BME280;861;48.808;9.006;2023-02-13T13:46:57;98892.00;;;17.21;44.87
41703;BME280;861;48.808;9.006;2023-02-13T13:52:31;98886.75;;;17.56;44.36
41703;BME280;861;48.808;9.006;2023-02-13T13:55:02;98885.84;;;17.42;44.31
41703;BME280;861;48.808;9.006;2023-02-13T13:57:59;98877.09;;;17.29;44.65
41703;BME280;861;48.808;9.006;2023-02-13T14:00:29;98887.78;;;17.41;44.41
41703;BME280;861;48.808;9.006;2023-02-13T14:03:12;98893.69;;;17.36;44.60
41703;BME280;861;48.808;9.006;2023-02-13T14:06:03;98889.84;;;17.51;44.36
41703;BME280;861;48.808;9.006;2023-02-13T14:16:59;98885.94;;;17.56;44.47
41703;BME280;861;48.808;9.006;2023-02-13T14:19:50;98890.25;;;17.53;43.22
41703;BME280;861;48.808;9.006;2023-02-13T14:24:59;98888.16;;;17.33;45.28
41703;BME280;861;48.808;9.006;2023-02-13T14:27:41;98896.03;;;17.34;44.49
41703;BME280;861;48.808;9.006;2023-02-13T14:30:48;98893.41;;;17.52;44.70
41703;BME280;861;48.808;9.006;2023-02-13T14:33:30;98889.75;;;17.37;44.60
41703;BME280;861;48.808;9.006;2023-02-13T14:36:07;98892.34;;;17.16;45.08
41703;BME280;861;48.808;9.006;2023-02-13T14:39:31;98886.06;;;17.12;44.89
41703;BME280;861;48.808;9.006;2023-02-13T14:42:24;98890.41;;;17.17;44.71
41703;BME280;861;48.808;9.006;2023-02-13T14:45:03;98889.66;;;17.23;44.55
41703;BME280;861;48.808;9.006;2023-02-13T14:47:47;98885.31;;;17.19;44.81
41703;BME280;861;48.808;9.006;2023-02-13T14:50:34;98886.88;;;17.20;45.42
41703;BME280;861;48.808;9.006;2023-02-13T14:53:45;98879.09;;;17.32;44.15
41703;BME280;861;48.808;9.006;2023-02-13T14:56:20;98877.81;;;17.16;44.80
41703;BME280;861;48.808;9.006;2023-02-13T14:59:04;98873.16;;;17.27;44.31
41703;BME280;861;48.808;9.006;2023-02-13T15:01:59;98878.69;;;17.30;44.70
41703;BME280;861;48.808;9.006;2023-02-13T15:05:14;98874.41;;;17.36;43.96
41703;BME280;861;48.808;9.006;2023-02-13T15:08:14;98875.69;;;17.53;43.89
41703;BME280;861;48.808;9.006;2023-02-13T15:10:50;98871.78;;;17.54;43.53
41703;BME280;861;48.808;9.006;2023-02-13T15:13:34;98871.38;;;17.59;43.63
41703;BME280;861;48.808;9.006;2023-02-13T15:16:13;98865.44;;;17.46;43.83
41703;BME280;861;48.808;9.006;2023-02-13T15:18:51;98869.38;;;17.45;43.59
41703;BME280;861;48.808;9.006;2023-02-13T15:21:24;98860.31;;;17.45;43.94
41703;BME280;861;48.808;9.006;2023-02-13T15:23:58;98860.25;;;17.41;44.41
41703;BME280;861;48.808;9.006;2023-02-13T15:26:25;98860.97;;;17.28;44.58
41703;BME280;861;48.808;9.006;2023-02-13T15:29:16;98857.81;;;17.26;44.31
41703;BME280;861;48.808;9.006;2023-02-13T15:31:44;98857.00;;;17.22;43.48
41703;BME280;861;48.808;9.006;2023-02-13T15:34:29;98861.97;;;17.02;43.97
41703;BME280;861;48.808;9.006;2023-02-13T15:37:00;98862.75;;;16.99;44.71
41703;BME280;861;48.808;9.006;2023-02-13T15:39:31;98867.84;;;16.94;45.03
41703;BME280;861;48.808;9.006;2023-02-13T15:42:02;98868.09;;;16.74;44.71
41703;BME280;861;48.808;9.006;2023-02-13T15:44:36;98864.13;;;16.72;44.84
41703;BME280;861;48.808;9.006;2023-02-13T15:47:22;98863.97;;;16.51;45.02
41703;BME280;861;48.808;9.006;2023-02-13T15:49:54;98860.56;;;16.28;45.99
41703;BME280;861;48.808;9.006;2023-02-13T15:52:37;98857.66;;;16.14;45.97
41703;BME280;861;48.808;9.006;2023-02-13T15:55:04;98863.44;;;16.02;46.55
41703;BME280;861;48.808;9.006;2023-02-13T15:57:32;98865.00;;;16.03;46.12
41703;BME280;861;48.808;9.006;2023-02-13T16:00:03;98868.28;;;15.79;46.27
41703;BME280;861;48.808;9.006;2023-02-13T16:03:00;98863.31;;;15.58;46.92
41703;BME280;861;48.808;9.006;2023-02-13T16:05:38;98865.53;;;15.49;47.33